Aérodrome :
LOGIN :

S'inscrire | Disclaimer

   EN    FR    IT 

 










Légende :    VFR   VFR Marginal   IFR   IFR Intensif   IFR Très Intensif
Visi : 
Plafond : 
>= 8 km
>= 3000ft
5 à 8 km
1000 à 3000 ft
1500m à 5 km
500 à 1000 ft
800 à 1500m
200 à 500 ft
< 800m
< 200 ft
Symboles :   Orages  Brouillard  Fortes neiges  Fortes précipitations  Vent > 20 kt
SIGMETs :   Divers  Orages  Givrage  Turbulence  Onde Orograph.  Cendres Volcan.






- Altitude de l'aérodrome : 587 ft
- Code IATA : XCR


LFOK - Chalons Vatry

DERNIER METAR :
  • 300430Z AUTO 02019KT CAVOK M01/M06 Q1027 BECMG 02015G25KT

METARs EXPIRÉS :
  • 300400Z AUTO 02019KT 9999 FEW038 M01/M05 Q1027 BECMG 02015G25KT
  • 300330Z AUTO 02017KT 9999 BKN039 M01/M04 Q1027 BECMG 02015G25KT
  • 300300Z AUTO 02015KT 9999 FEW039 M01/M04 Q1027 BECMG 02015G25KT
  • 300230Z AUTO 02015KT 9999 FEW039 M00/M04 Q1027 BECMG 02015G25KT
  • 300200Z AUTO 02016KT CAVOK 00/M04 Q1027 BECMG 02015G25KT

TAF TAF LFOK
Valide du 30 à 00h jusqu'au 31 à 00h UTC


292300Z 3000/3024 02015G25KT 9999 SCT035
BECMG 3016/3018 02012KT



MET'MAP, la Météo Aéronautique d'un coup d'oeil ! - Copyright ORBIFLY Décembre 2007 - Disclaimer

ORBIFLY MET'MAP TEAM :

Programmation & Développement : Alexandra Zaïnal
Sur une idée originale de : Baudouin d'Aumeries
Assistance à la programmation : Marc-Olivier Méhu
Soutien technique & logistique : Manuel Goepfert

Contact : metmap@orbifly.com




SOURCES & CREDITS :

   NOAA